createdAt,value
2018-07-31T00:01:41.363Z,16.60
2018-07-31T00:04:08.843Z,14.50
2018-07-31T00:06:36.307Z,14.67
2018-07-31T00:09:04.319Z,14.33
2018-07-31T00:11:31.769Z,13.13
2018-07-31T00:13:59.171Z,13.67
2018-07-31T00:16:26.594Z,12.73
2018-07-31T00:18:54.025Z,13.37
2018-07-31T00:21:21.724Z,18.37
2018-07-31T00:23:49.171Z,13.73
2018-07-31T00:26:16.637Z,14.87
2018-07-31T00:28:44.051Z,12.73
2018-07-31T00:31:11.464Z,13.77
2018-07-31T00:33:39.546Z,15.23
2018-07-31T00:36:07.119Z,14.77
2018-07-31T00:38:34.626Z,12.40
2018-07-31T00:41:02.136Z,15.57
2018-07-31T00:43:29.660Z,14.20
2018-07-31T00:45:57.256Z,15.90
2018-07-31T00:48:24.756Z,13.10
2018-07-31T00:50:52.216Z,14.60
2018-07-31T00:53:19.731Z,15.17
2018-07-31T00:55:47.203Z,14.77
2018-07-31T00:58:14.687Z,16.53
2018-07-31T01:00:42.155Z,17.40
2018-07-31T01:03:09.646Z,16.53
2018-07-31T01:05:37.106Z,16.43
2018-07-31T01:08:04.575Z,16.43
2018-07-31T01:10:32.085Z,16.73
2018-07-31T01:12:59.587Z,15.30
2018-07-31T01:15:27.107Z,16.37
2018-07-31T01:17:54.649Z,16.57
2018-07-31T01:20:22.095Z,16.73
2018-07-31T01:22:49.595Z,16.50
2018-07-31T01:25:17.135Z,16.13
2018-07-31T01:27:44.788Z,16.80
2018-07-31T01:30:12.273Z,15.10
2018-07-31T01:32:40.389Z,17.33
2018-07-31T01:35:07.951Z,15.87
2018-07-31T01:37:35.420Z,17.60
2018-07-31T01:40:02.958Z,15.60
2018-07-31T01:42:30.860Z,16.87
2018-07-31T01:44:58.359Z,16.33
2018-07-31T01:47:25.803Z,16.90
2018-07-31T01:49:54.151Z,18.23
2018-07-31T01:52:21.675Z,19.20
2018-07-31T01:54:49.125Z,16.87
2018-07-31T01:57:16.628Z,18.20
2018-07-31T01:59:44.198Z,19.50
2018-07-31T02:02:12.068Z,18.37
2018-07-31T02:04:39.537Z,18.37
2018-07-31T02:07:07.039Z,20.10
2018-07-31T02:09:34.532Z,19.63
2018-07-31T02:12:02.074Z,19.40
2018-07-31T02:14:29.588Z,22.03
2018-07-31T02:16:57.075Z,17.97
2018-07-31T02:19:24.496Z,17.60
2018-07-31T02:21:51.969Z,18.27
2018-07-31T02:24:19.419Z,19.03
2018-07-31T02:26:46.871Z,17.63
2018-07-31T02:29:14.413Z,17.43
2018-07-31T02:31:41.900Z,19.47
2018-07-31T02:34:09.335Z,17.90
2018-07-31T02:36:37.159Z,20.77
2018-07-31T02:39:06.635Z,19.10
2018-07-31T02:41:34.092Z,20.33
2018-07-31T02:44:01.573Z,19.80
2018-07-31T02:46:29.029Z,21.03
2018-07-31T02:48:56.486Z,20.00
2018-07-31T02:51:23.948Z,21.93
2018-07-31T02:53:51.416Z,22.80
2018-07-31T02:56:18.856Z,21.40
2018-07-31T02:58:46.371Z,21.67
2018-07-31T03:01:13.879Z,20.67
2018-07-31T03:03:41.369Z,21.83
2018-07-31T03:06:08.826Z,21.40
2018-07-31T03:08:36.232Z,20.23
2018-07-31T03:11:03.667Z,21.00
2018-07-31T03:13:31.097Z,20.77
2018-07-31T03:15:58.505Z,21.53
2018-07-31T03:18:25.920Z,20.33
2018-07-31T03:20:53.385Z,19.70
2018-07-31T03:23:21.115Z,19.20
2018-07-31T03:25:48.574Z,18.83
2018-07-31T03:28:16.092Z,19.00
2018-07-31T03:30:43.504Z,19.27
2018-07-31T03:33:10.985Z,18.67
2018-07-31T03:35:38.473Z,18.50
2018-07-31T03:38:05.939Z,17.10
2018-07-31T03:40:33.388Z,17.07
2018-07-31T03:43:00.831Z,16.33
2018-07-31T03:45:28.276Z,15.63
2018-07-31T03:47:55.679Z,15.83
2018-07-31T03:50:23.099Z,17.00
2018-07-31T03:52:50.510Z,15.67
2018-07-31T03:55:18.237Z,16.03
2018-07-31T03:57:46.345Z,16.43
2018-07-31T04:00:13.792Z,15.67
2018-07-31T04:02:41.211Z,15.57
2018-07-31T04:05:08.659Z,15.00
2018-07-31T04:07:36.070Z,14.83
2018-07-31T04:10:04.571Z,14.90
2018-07-31T04:12:32.084Z,15.77
2018-07-31T04:14:59.545Z,15.10
2018-07-31T04:17:27.004Z,14.77
2018-07-31T04:19:54.495Z,14.97
2018-07-31T04:22:21.931Z,14.33
2018-07-31T04:24:49.373Z,14.10
2018-07-31T04:27:16.961Z,14.40
2018-07-31T04:29:44.376Z,13.87
2018-07-31T04:32:11.840Z,13.27
2018-07-31T04:34:39.316Z,12.90
2018-07-31T04:37:06.799Z,13.33
2018-07-31T04:39:34.256Z,12.97
2018-07-31T04:42:01.791Z,13.07
2018-07-31T04:44:29.235Z,11.83
2018-07-31T04:46:56.669Z,13.17
2018-07-31T04:49:24.124Z,13.00
2018-07-31T04:51:51.570Z,12.57
2018-07-31T04:54:19.018Z,14.13
2018-07-31T04:56:46.471Z,13.37
2018-07-31T04:59:13.906Z,12.90
2018-07-31T05:02:22.282Z,13.33
2018-07-31T05:04:49.703Z,13.07
2018-07-31T05:07:17.182Z,12.77
2018-07-31T05:09:44.631Z,13.50
2018-07-31T05:12:12.076Z,14.67
2018-07-31T05:18:07.031Z,13.23
2018-07-31T05:20:34.463Z,13.73
2018-07-31T05:23:01.866Z,13.30
2018-07-31T05:25:29.330Z,13.03
2018-07-31T05:27:56.768Z,12.20
2018-07-31T05:30:24.243Z,17.17
2018-07-31T05:32:51.813Z,13.00
2018-07-31T05:35:19.151Z,13.00
2018-07-31T05:37:46.634Z,10.57
2018-07-31T05:40:14.162Z,12.90
2018-07-31T05:42:41.692Z,11.87
2018-07-31T05:45:09.172Z,12.23
2018-07-31T05:47:37.057Z,11.63
2018-07-31T05:50:05.283Z,12.63
2018-07-31T05:52:32.735Z,13.40
2018-07-31T05:55:00.246Z,12.90
2018-07-31T05:57:27.719Z,12.40
2018-07-31T05:59:55.191Z,11.80
2018-07-31T06:02:22.696Z,11.37
2018-07-31T06:04:50.188Z,13.27
2018-07-31T06:07:17.615Z,12.23
2018-07-31T06:09:45.148Z,12.10
2018-07-31T06:12:12.620Z,12.10
2018-07-31T06:14:40.071Z,12.33
2018-07-31T06:17:07.577Z,11.90
2018-07-31T06:19:35.036Z,12.70
2018-07-31T06:22:02.519Z,12.30
2018-07-31T06:24:30.017Z,13.30
2018-07-31T06:26:57.596Z,11.97
2018-07-31T06:29:25.053Z,13.63
2018-07-31T06:31:52.919Z,11.87
2018-07-31T06:34:20.433Z,11.83
2018-07-31T06:36:47.923Z,12.40
2018-07-31T06:39:15.423Z,10.87
2018-07-31T06:41:42.868Z,12.00
2018-07-31T06:44:10.303Z,11.33
2018-07-31T06:46:38.031Z,13.10
2018-07-31T06:49:05.456Z,11.93
2018-07-31T06:51:32.899Z,11.27
2018-07-31T06:54:02.461Z,10.80
2018-07-31T06:56:29.912Z,11.00
2018-07-31T06:58:57.412Z,11.47
2018-07-31T07:01:24.887Z,11.43
2018-07-31T07:03:52.319Z,12.43
2018-07-31T07:06:19.788Z,10.30
2018-07-31T07:08:48.467Z,10.33
2018-07-31T07:11:15.959Z,11.13
2018-07-31T07:13:43.443Z,10.40
2018-07-31T07:16:10.925Z,10.43
2018-07-31T07:18:38.391Z,9.93
2018-07-31T07:21:05.880Z,10.70
2018-07-31T07:23:33.380Z,11.60
2018-07-31T07:26:00.855Z,12.30
2018-07-31T07:28:28.347Z,9.97
2018-07-31T07:30:55.820Z,11.35
2018-07-31T07:33:23.231Z,8.65
2018-07-31T07:35:50.876Z,10.43
2018-07-31T07:38:18.379Z,10.53
2018-07-31T07:40:45.819Z,7.85
2018-07-31T07:43:13.269Z,9.08
2018-07-31T07:45:40.792Z,8.20
2018-07-31T07:48:08.359Z,8.23
2018-07-31T07:50:36.139Z,9.23
2018-07-31T07:53:03.632Z,10.10
2018-07-31T07:55:31.123Z,7.92
2018-07-31T07:57:58.650Z,8.00
2018-07-31T08:00:26.164Z,11.25
2018-07-31T08:02:54.654Z,8.43
2018-07-31T08:05:22.188Z,8.18
2018-07-31T08:07:49.631Z,8.48
2018-07-31T08:10:17.067Z,11.28
2018-07-31T08:12:44.475Z,7.90
2018-07-31T08:15:11.944Z,8.10
2018-07-31T08:17:39.489Z,9.05
2018-07-31T08:20:07.165Z,9.20
2018-07-31T08:22:34.708Z,11.45
2018-07-31T08:25:02.352Z,8.15
2018-07-31T08:27:29.792Z,7.42
2018-07-31T08:29:57.307Z,10.45
2018-07-31T08:32:24.771Z,10.00
2018-07-31T08:34:52.236Z,7.37
2018-07-31T08:37:19.793Z,7.65
2018-07-31T08:39:47.275Z,9.23
2018-07-31T08:42:14.707Z,7.70
2018-07-31T08:44:42.193Z,7.22
2018-07-31T08:47:09.683Z,6.92
2018-07-31T08:49:37.272Z,7.00
2018-07-31T08:52:04.795Z,9.90
2018-07-31T08:54:32.311Z,8.00
2018-07-31T08:57:00.260Z,7.47
2018-07-31T08:59:27.723Z,8.75
2018-07-31T09:01:55.326Z,8.20
2018-07-31T09:04:22.856Z,7.92
2018-07-31T09:06:50.287Z,9.18
2018-07-31T09:09:17.686Z,8.63
2018-07-31T09:11:45.108Z,12.18
2018-07-31T09:14:12.580Z,8.43
2018-07-31T09:16:40.033Z,7.62
2018-07-31T09:19:07.547Z,8.48
2018-07-31T09:21:34.987Z,8.23
2018-07-31T09:24:02.538Z,7.60
2018-07-31T09:26:29.951Z,7.22
2018-07-31T09:28:57.388Z,7.20
2018-07-31T09:31:24.804Z,9.95
2018-07-31T09:33:52.223Z,9.43
2018-07-31T09:36:19.660Z,7.40
2018-07-31T09:38:47.052Z,7.83
2018-07-31T09:41:14.519Z,8.10
2018-07-31T09:43:41.955Z,6.72
2018-07-31T09:46:09.425Z,9.13
2018-07-31T09:48:36.930Z,7.95
2018-07-31T09:51:04.437Z,7.85
2018-07-31T09:53:31.863Z,7.97
2018-07-31T09:55:59.280Z,7.67
2018-07-31T09:58:26.771Z,9.03
2018-07-31T10:01:24.775Z,8.93
2018-07-31T10:03:52.296Z,7.53
2018-07-31T10:06:19.719Z,7.42
2018-07-31T10:08:47.119Z,9.28
2018-07-31T10:11:14.647Z,13.30
2018-07-31T10:13:42.060Z,8.15
2018-07-31T10:16:09.539Z,8.35
2018-07-31T10:18:37.093Z,7.95
2018-07-31T10:21:04.531Z,8.23
2018-07-31T10:23:31.963Z,9.85
2018-07-31T10:25:59.411Z,7.78
2018-07-31T10:28:26.829Z,7.33
2018-07-31T10:30:54.336Z,8.28
2018-07-31T10:33:21.823Z,8.38
2018-07-31T10:35:49.365Z,7.10
2018-07-31T10:38:16.766Z,8.03
2018-07-31T10:40:44.563Z,8.05
2018-07-31T10:43:11.973Z,6.83
2018-07-31T10:45:39.403Z,7.45
2018-07-31T10:48:06.863Z,6.80
2018-07-31T10:50:34.275Z,8.60
2018-07-31T10:53:01.715Z,6.33
2018-07-31T10:55:29.152Z,6.37
2018-07-31T10:57:56.689Z,6.40
2018-07-31T11:00:24.204Z,6.42
2018-07-31T11:02:51.666Z,5.90
2018-07-31T11:05:18.996Z,5.58
2018-07-31T11:07:46.434Z,5.87
2018-07-31T11:10:13.931Z,6.10
2018-07-31T11:12:41.375Z,6.85
2018-07-31T11:15:08.813Z,10.03
2018-07-31T11:17:36.590Z,4.92
2018-07-31T11:20:04.470Z,5.10
2018-07-31T11:22:31.940Z,8.63
2018-07-31T11:24:59.387Z,6.03
2018-07-31T11:27:26.859Z,6.20
2018-07-31T11:29:54.283Z,5.37
2018-07-31T11:32:21.795Z,5.58
2018-07-31T11:34:49.225Z,5.53
2018-07-31T11:37:16.658Z,4.92
2018-07-31T11:39:44.215Z,5.20
2018-07-31T11:42:11.657Z,5.78
2018-07-31T11:44:39.257Z,4.90
2018-07-31T11:47:06.716Z,6.83
2018-07-31T11:49:34.112Z,6.20
2018-07-31T11:52:01.568Z,5.00
2018-07-31T11:54:29.090Z,4.97
2018-07-31T11:56:56.568Z,4.60
2018-07-31T11:59:24.176Z,5.55
2018-07-31T12:01:51.718Z,4.95
2018-07-31T12:04:19.168Z,5.03
2018-07-31T12:06:46.576Z,5.17
2018-07-31T12:09:14.191Z,6.33
2018-07-31T12:11:42.499Z,5.60
2018-07-31T12:14:09.910Z,5.12
2018-07-31T12:16:37.396Z,5.60
2018-07-31T12:19:04.841Z,8.83
2018-07-31T12:21:32.331Z,6.10
2018-07-31T12:23:59.751Z,7.42
2018-07-31T12:26:27.176Z,5.80
2018-07-31T12:28:54.595Z,6.85
2018-07-31T12:31:22.055Z,6.45
2018-07-31T12:33:49.576Z,5.65
2018-07-31T12:36:17.019Z,7.45
2018-07-31T12:38:44.459Z,8.00
2018-07-31T12:41:11.884Z,9.00
2018-07-31T12:43:40.408Z,6.05
2018-07-31T12:46:08.228Z,5.92
2018-07-31T12:48:35.678Z,7.00
2018-07-31T12:51:03.065Z,7.35
2018-07-31T12:53:30.491Z,5.90
2018-07-31T12:55:58.231Z,6.28
2018-07-31T12:58:25.643Z,6.25
2018-07-31T13:00:53.108Z,6.05
2018-07-31T13:03:20.511Z,6.53
2018-07-31T13:05:48.322Z,5.90
2018-07-31T13:08:15.747Z,6.47
2018-07-31T13:10:43.271Z,6.58
2018-07-31T13:13:10.766Z,6.37
2018-07-31T13:15:38.223Z,8.85
2018-07-31T13:18:05.756Z,5.60
2018-07-31T13:20:33.255Z,5.87
2018-07-31T13:23:00.682Z,9.08
2018-07-31T13:25:28.096Z,6.08
2018-07-31T13:27:55.569Z,6.35
2018-07-31T13:30:23.008Z,5.87
2018-07-31T13:32:50.436Z,5.85
2018-07-31T13:35:17.841Z,8.73
2018-07-31T13:37:45.295Z,6.40
2018-07-31T13:40:12.714Z,6.37
2018-07-31T13:42:40.136Z,6.92
2018-07-31T13:45:07.672Z,6.30
2018-07-31T13:47:35.130Z,5.80
2018-07-31T13:50:03.509Z,6.25
2018-07-31T13:52:31.060Z,6.30
2018-07-31T13:54:58.508Z,6.05
2018-07-31T13:57:26.441Z,8.40
2018-07-31T13:59:53.883Z,6.72
2018-07-31T14:02:57.162Z,6.28
2018-07-31T14:05:24.882Z,7.58
2018-07-31T14:07:52.383Z,5.67
2018-07-31T14:10:19.881Z,7.80
2018-07-31T14:12:47.420Z,6.53
2018-07-31T14:15:19.591Z,7.10
2018-07-31T14:21:05.928Z,5.30
2018-07-31T14:23:33.551Z,5.97
2018-07-31T14:28:57.065Z,5.83
2018-07-31T14:31:25.115Z,7.40
2018-07-31T14:37:12.966Z,6.10
2018-07-31T14:39:44.438Z,9.85
2018-07-31T14:42:11.872Z,8.25
2018-07-31T14:44:39.271Z,7.65
2018-07-31T14:47:06.719Z,8.20
2018-07-31T14:49:34.115Z,6.20
2018-07-31T14:52:01.539Z,5.15
2018-07-31T14:54:28.975Z,8.33
2018-07-31T14:56:56.458Z,5.55
2018-07-31T14:59:23.920Z,5.30
2018-07-31T15:01:51.456Z,5.85
2018-07-31T15:04:18.891Z,7.75
2018-07-31T15:06:46.300Z,6.25
2018-07-31T15:09:13.728Z,7.33
2018-07-31T15:11:41.117Z,8.20
2018-07-31T15:14:08.607Z,7.50
2018-07-31T15:16:36.063Z,6.17
2018-07-31T15:19:03.591Z,6.15
2018-07-31T15:21:31.257Z,5.45
2018-07-31T15:23:58.699Z,6.78
2018-07-31T15:26:26.124Z,5.53
2018-07-31T15:28:53.573Z,5.28
2018-07-31T15:31:21.043Z,5.17
2018-07-31T15:33:48.460Z,6.33
2018-07-31T15:36:15.899Z,4.75
2018-07-31T15:38:43.342Z,4.85
2018-07-31T15:41:10.828Z,5.95
2018-07-31T15:43:38.389Z,7.15
2018-07-31T15:46:05.868Z,6.15
2018-07-31T15:48:33.279Z,4.90
2018-07-31T15:51:00.695Z,5.30
2018-07-31T15:53:28.183Z,4.75
2018-07-31T15:55:55.709Z,4.83
2018-07-31T15:58:23.133Z,4.40
2018-07-31T16:00:51.078Z,6.90
2018-07-31T16:03:18.960Z,6.05
2018-07-31T16:05:46.768Z,5.55
2018-07-31T16:08:14.268Z,8.95
2018-07-31T16:10:41.659Z,5.72
2018-07-31T16:13:09.079Z,5.90
2018-07-31T16:15:36.535Z,5.00
2018-07-31T16:18:04.753Z,6.70
2018-07-31T16:20:32.267Z,7.20
2018-07-31T16:22:59.788Z,5.10
2018-07-31T16:25:27.171Z,6.47
2018-07-31T16:27:54.584Z,5.75
2018-07-31T16:30:22.115Z,7.08
2018-07-31T16:32:49.595Z,8.30
2018-07-31T16:35:18.472Z,5.47
2018-07-31T16:37:46.075Z,5.72
2018-07-31T16:40:14.278Z,5.95
2018-07-31T16:42:41.703Z,7.55
2018-07-31T16:45:09.187Z,6.45
2018-07-31T16:47:36.855Z,5.55
2018-07-31T16:50:04.470Z,6.20
2018-07-31T16:52:31.910Z,6.72
2018-07-31T16:54:59.331Z,5.90
2018-07-31T16:57:26.760Z,6.83
2018-07-31T16:59:54.216Z,6.20
2018-07-31T17:02:21.662Z,8.58
2018-07-31T17:04:49.151Z,7.85
2018-07-31T17:07:16.679Z,6.85
2018-07-31T17:09:44.107Z,8.83
2018-07-31T17:12:11.623Z,7.50
2018-07-31T17:14:39.128Z,6.03
2018-07-31T17:17:06.531Z,6.20
2018-07-31T17:19:34.062Z,6.05
2018-07-31T17:22:01.532Z,5.80
2018-07-31T17:24:28.984Z,8.70
2018-07-31T17:26:57.355Z,8.10
2018-07-31T17:29:24.809Z,5.87
2018-07-31T17:31:52.543Z,5.40
2018-07-31T17:34:19.983Z,5.62
2018-07-31T17:36:47.511Z,6.95
2018-07-31T17:39:14.927Z,6.80
2018-07-31T17:41:42.467Z,5.60
2018-07-31T17:44:11.736Z,6.17
2018-07-31T17:46:39.188Z,5.05
2018-07-31T17:49:06.703Z,5.90
2018-07-31T17:51:34.183Z,7.75
2018-07-31T17:56:47.247Z,6.20
2018-07-31T17:59:14.679Z,7.70
2018-07-31T18:01:42.734Z,6.65
2018-07-31T18:04:10.344Z,7.08
2018-07-31T18:06:37.787Z,7.67
2018-07-31T18:09:06.771Z,8.48
2018-07-31T18:11:34.306Z,7.45
2018-07-31T18:14:01.788Z,6.70
2018-07-31T18:16:29.377Z,8.03
2018-07-31T18:18:56.834Z,7.03
2018-07-31T18:21:24.296Z,7.75
2018-07-31T18:23:51.747Z,7.83
2018-07-31T18:26:19.204Z,11.20
2018-07-31T18:28:46.625Z,8.90
2018-07-31T18:31:14.052Z,8.30
2018-07-31T18:33:41.543Z,7.77
2018-07-31T18:36:08.982Z,9.53
2018-07-31T18:38:36.439Z,10.33
2018-07-31T18:41:03.998Z,8.23
2018-07-31T18:43:31.384Z,8.40
2018-07-31T18:45:58.786Z,8.50
2018-07-31T18:48:26.256Z,9.57
2018-07-31T18:50:53.657Z,8.73
2018-07-31T18:53:21.096Z,12.20
2018-07-31T18:55:48.551Z,9.67
2018-07-31T18:58:15.961Z,9.07
2018-07-31T19:00:43.379Z,11.10
2018-07-31T19:03:10.819Z,8.17
2018-07-31T19:05:38.209Z,9.23
2018-07-31T19:08:05.635Z,9.57
2018-07-31T19:10:33.067Z,9.37
2018-07-31T19:13:00.522Z,10.43
2018-07-31T19:15:27.952Z,9.03
2018-07-31T19:17:55.445Z,11.47
2018-07-31T19:20:22.868Z,8.87
2018-07-31T19:22:50.321Z,9.67
2018-07-31T19:25:17.747Z,9.07
2018-07-31T19:27:45.199Z,9.27
2018-07-31T19:30:12.639Z,9.07
2018-07-31T19:32:40.084Z,9.40
2018-07-31T19:35:07.508Z,9.77
2018-07-31T19:37:34.928Z,10.10
2018-07-31T19:40:02.396Z,11.83
2018-07-31T19:42:29.815Z,9.60
2018-07-31T19:44:57.399Z,11.43
2018-07-31T19:47:24.816Z,10.07
2018-07-31T19:49:52.233Z,12.03
2018-07-31T19:52:19.632Z,10.27
2018-07-31T19:54:47.112Z,10.10
2018-07-31T19:57:14.529Z,10.47
2018-07-31T19:59:41.955Z,10.77
2018-07-31T20:02:09.422Z,10.90
2018-07-31T20:04:36.884Z,10.80
2018-07-31T20:07:04.311Z,10.67
2018-07-31T20:09:31.754Z,10.93
2018-07-31T20:11:59.187Z,13.40
2018-07-31T20:14:26.635Z,11.57
2018-07-31T20:16:54.392Z,11.40
2018-07-31T20:19:22.348Z,11.77
2018-07-31T20:21:49.887Z,12.47
2018-07-31T20:24:17.368Z,10.97
2018-07-31T20:26:44.797Z,11.87
2018-07-31T20:29:12.232Z,11.27
2018-07-31T20:31:40.223Z,10.97
2018-07-31T20:34:07.648Z,11.60
2018-07-31T20:36:35.605Z,11.67
2018-07-31T20:39:03.367Z,12.03
2018-07-31T20:41:30.836Z,11.80
2018-07-31T20:43:58.354Z,12.00
2018-07-31T20:46:25.873Z,12.33
2018-07-31T20:48:53.319Z,13.07
2018-07-31T20:51:20.767Z,12.70
2018-07-31T20:53:48.209Z,13.80
2018-07-31T20:56:15.725Z,12.80
2018-07-31T20:58:43.196Z,12.57
2018-07-31T21:01:10.676Z,12.60
2018-07-31T21:03:38.181Z,12.50
2018-07-31T21:06:05.636Z,12.93
2018-07-31T21:08:33.139Z,12.83
2018-07-31T21:11:00.799Z,13.43
2018-07-31T21:13:28.280Z,13.53
2018-07-31T21:15:55.768Z,13.63
2018-07-31T21:18:23.271Z,14.23
2018-07-31T21:20:50.680Z,14.27
2018-07-31T21:23:18.131Z,14.23
2018-07-31T21:25:46.255Z,13.67
2018-07-31T21:28:13.679Z,14.57
2018-07-31T21:30:41.113Z,14.63
2018-07-31T21:33:08.536Z,14.40
2018-07-31T21:35:35.975Z,14.83
2018-07-31T21:38:03.471Z,14.67
2018-07-31T21:40:30.875Z,13.70
2018-07-31T21:42:58.306Z,14.80
2018-07-31T21:45:25.760Z,14.30
2018-07-31T21:47:53.168Z,13.93
2018-07-31T21:50:20.597Z,14.00
2018-07-31T21:52:48.071Z,14.33
2018-07-31T21:55:15.477Z,14.97
2018-07-31T21:57:42.903Z,13.87
2018-07-31T22:00:11.354Z,13.93
2018-07-31T22:02:39.217Z,13.90
2018-07-31T22:05:06.676Z,14.23
2018-07-31T22:07:34.163Z,14.63
2018-07-31T22:10:01.614Z,15.77
2018-07-31T22:12:29.067Z,13.93
2018-07-31T22:14:56.543Z,14.03
2018-07-31T22:17:23.965Z,13.83
2018-07-31T22:19:51.367Z,14.27
2018-07-31T22:22:18.815Z,13.23
2018-07-31T22:24:46.316Z,14.73
2018-07-31T22:27:13.899Z,13.40
2018-07-31T22:29:41.549Z,13.63
2018-07-31T22:32:08.964Z,13.13
2018-07-31T22:34:36.387Z,13.73
2018-07-31T22:37:03.835Z,13.57
2018-07-31T22:39:31.247Z,14.43
2018-07-31T22:41:58.651Z,13.17
2018-07-31T22:44:26.087Z,14.20
2018-07-31T22:46:53.492Z,14.50
2018-07-31T22:49:20.937Z,13.63
2018-07-31T22:51:48.371Z,13.67
2018-07-31T22:54:15.784Z,14.57
2018-07-31T22:56:43.212Z,14.20
2018-07-31T22:59:10.676Z,15.80
2018-07-31T23:01:38.088Z,14.30
2018-07-31T23:04:05.594Z,13.80
2018-07-31T23:06:33.059Z,13.77
2018-07-31T23:09:00.492Z,13.97
2018-07-31T23:11:27.900Z,13.97
2018-07-31T23:13:55.345Z,13.40
2018-07-31T23:16:22.783Z,13.90
2018-07-31T23:18:50.279Z,14.13
2018-07-31T23:21:17.755Z,13.83
2018-07-31T23:23:45.207Z,15.23
2018-07-31T23:26:12.615Z,13.90
2018-07-31T23:28:40.209Z,14.20
2018-07-31T23:31:07.699Z,15.03
2018-07-31T23:33:35.115Z,13.40
2018-07-31T23:37:31.964Z,13.77
2018-07-31T23:40:00.459Z,13.67
2018-07-31T23:42:27.951Z,14.57
2018-07-31T23:44:55.891Z,14.33
2018-07-31T23:47:23.308Z,14.10
2018-07-31T23:49:50.803Z,14.37
2018-07-31T23:52:18.315Z,14.43
2018-07-31T23:54:45.883Z,14.70
2018-07-31T23:57:13.311Z,14.47
2018-07-31T23:59:40.767Z,14.53
